.
WxDataArchive / Data Records for 2007-11-24
2007-11-23 November 2007 2007-11-25

Data Records for Saturday, 24 November 2007

Time	Temp	Chill	HIndex	Humid	Dewpt	 Wind 	HiWind	WindDir	Rain 	Barom 
-----	----	-----	------	-----	-----	------	------	-------	-----	----- 
00:00	24.8	24.8	24.8	80	19.5	0	0	---	0.00	30.374 
00:05	24.7	24.7	24.7	81	19.7	0	0	---	0.00	30.372 
00:10	24.4	24.4	24.4	81	19.4	0	0	---	0.00	30.369 
00:15	24.4	24.4	24.4	81	19.4	0	0	---	0.00	30.375 
00:20	24.4	24.4	24.4	82	19.7	0	0	---	0.00	30.379 
00:25	24.2	24.2	24.2	82	19.5	0	0	---	0.00	30.376 
00:30	24.1	24.1	24.1	82	19.4	0	0	---	0.00	30.377 
00:35	24.1	24.1	24.1	82	19.4	0	0	---	0.00	30.379 
00:40	23.9	23.9	23.9	83	19.5	0	0	---	0.00	30.379 
00:45	23.8	23.8	23.8	83	19.4	0	0	---	0.00	30.374 
00:50	23.8	23.8	23.8	83	19.4	0	0	---	0.00	30.376 
00:55	23.8	23.8	23.8	83	19.4	0	0	---	0.00	30.374 
01:00	23.8	23.8	23.8	84	19.7	0	0	---	0.00	30.371 
01:05	23.9	23.9	23.9	84	19.8	0	0	---	0.00	30.375 
01:10	23.9	23.9	23.9	85	20.1	0	0	---	0.00	30.369 
01:15	23.9	23.9	23.9	85	20.1	0	0	---	0.00	30.368 
01:20	23.9	23.9	23.9	85	20.1	0	0	---	0.00	30.368 
01:25	23.9	23.9	23.9	85	20.1	0	0	---	0.00	30.369 
01:30	23.8	23.8	23.8	85	20.0	0	0	---	0.00	30.373 
01:35	23.8	23.8	23.8	85	20.0	0	0	---	0.00	30.371 
01:40	23.8	23.8	23.8	85	20.0	0	0	---	0.00	30.373 
01:45	23.8	23.8	23.8	86	20.2	0	0	---	0.00	30.370 
01:50	23.8	23.8	23.8	86	20.2	0	0	---	0.00	30.372 
01:55	23.8	23.8	23.8	86	20.2	0	0	---	0.00	30.368 
02:00	23.9	23.9	23.9	86	20.3	0	0	---	0.00	30.367 
02:05	23.9	23.9	23.9	86	20.3	0	0	---	0.00	30.368 
02:10	23.9	23.9	23.9	86	20.3	0	0	---	0.00	30.369 
02:15	23.9	23.9	23.9	86	20.3	0	0	---	0.00	30.370 
02:20	23.8	23.8	23.8	85	20.0	0	0	---	0.00	30.368 
02:25	23.8	23.8	23.8	85	20.0	0	0	---	0.00	30.370 
02:30	23.8	23.8	23.8	85	20.0	0	0	---	0.00	30.371 
02:35	23.6	23.6	23.6	85	19.8	0	0	---	0.00	30.367 
02:40	23.8	23.8	23.8	86	20.2	0	0	---	0.00	30.369 
02:45	23.8	23.8	23.8	86	20.2	0	0	---	0.00	30.370 
02:50	23.9	23.9	23.9	86	20.3	0	0	---	0.00	30.377 
02:55	24.1	24.1	24.1	86	20.5	0	0	---	0.00	30.381 
03:00	24.2	24.2	24.2	86	20.6	0	0	---	0.00	30.381 
03:05	24.2	24.2	24.2	86	20.6	0	0	---	0.00	30.381 
03:10	24.4	24.4	24.4	86	20.8	0	0	---	0.00	30.381 
03:15	24.5	24.5	24.5	85	20.6	0	0	---	0.00	30.377 
03:20	24.7	24.7	24.7	85	20.8	0	0	---	0.00	30.372 
03:25	24.7	24.7	24.7	85	20.8	0	0	---	0.00	30.373 
03:30	24.8	24.8	24.8	85	20.9	0	1	248	0.00	30.370 
03:35	24.8	24.8	24.8	85	20.9	0	2	248	0.00	30.375 
03:40	24.8	24.8	24.8	84	20.7	0	1	248	0.00	30.370 
03:45	24.8	24.8	24.8	84	20.7	0	0	---	0.00	30.368 
03:50	24.8	24.8	24.8	84	20.7	0	0	---	0.00	30.367 
03:55	24.7	24.7	24.7	84	20.6	0	0	---	0.00	30.368 
04:00	24.7	24.7	24.7	84	20.6	0	0	---	0.00	30.367 
04:05	24.5	24.5	24.5	84	20.4	0	0	---	0.00	30.366 
04:10	24.5	24.5	24.5	83	20.1	0	0	---	0.00	30.365 
04:15	24.5	24.5	24.5	84	20.4	0	0	---	0.00	30.365 
04:20	24.5	24.5	24.5	84	20.4	0	0	---	0.00	30.365 
04:25	24.5	24.5	24.5	84	20.4	0	0	---	0.00	30.365 
04:30	24.5	24.5	24.5	84	20.4	0	0	---	0.00	30.362 
04:35	24.7	24.7	24.7	84	20.6	0	0	---	0.00	30.358 
04:40	24.7	24.7	24.7	84	20.6	0	1	248	0.00	30.358 
04:45	24.8	24.8	24.8	84	20.7	0	1	248	0.00	30.358 
04:50	25.0	25.0	25.0	84	20.9	0	0	---	0.00	30.363 
04:55	25.0	25.0	25.0	84	20.9	0	0	---	0.00	30.362 
05:00	25.1	25.1	25.1	84	21.0	0	0	---	0.00	30.361 
05:05	25.1	25.1	25.1	84	21.0	0	0	---	0.00	30.368 
05:10	25.3	25.3	25.3	84	21.2	0	1	248	0.00	30.367 
05:15	25.3	25.3	25.3	84	21.2	0	0	---	0.00	30.366 
05:20	25.4	25.4	25.4	84	21.3	0	0	---	0.00	30.365 
05:25	25.4	25.4	25.4	84	21.3	0	0	---	0.00	30.358 
05:30	25.4	25.4	25.4	84	21.3	0	0	---	0.00	30.355 
05:35	25.4	25.4	25.4	84	21.3	0	0	---	0.00	30.356 
05:40	25.6	25.6	25.6	84	21.5	0	0	---	0.00	30.356 
05:45	25.6	25.6	25.6	84	21.5	0	0	---	0.00	30.355 
05:50	25.6	25.6	25.6	84	21.5	0	1	248	0.00	30.354 
05:55	25.7	25.7	25.7	84	21.5	0	0	---	0.00	30.355 
06:00	25.7	25.7	25.7	84	21.5	0	0	---	0.00	30.354 
06:05	25.8	25.8	25.8	83	21.4	0	1	248	0.00	30.363 
06:10	25.8	25.8	25.8	83	21.4	0	1	248	0.00	30.358 
06:15	25.8	25.8	25.8	83	21.4	0	1	248	0.00	30.358 
06:20	26.0	26.0	26.0	82	21.3	0	1	248	0.00	30.359 
06:25	26.0	26.0	26.0	82	21.3	0	1	248	0.00	30.366 
06:30	26.0	26.0	26.0	82	21.3	0	0	---	0.00	30.364 
06:35	26.0	26.0	26.0	82	21.3	0	0	---	0.00	30.360 
06:40	26.0	26.0	26.0	82	21.3	0	0	---	0.00	30.359 
06:45	26.0	26.0	26.0	82	21.3	0	0	---	0.00	30.363 
06:50	26.0	26.0	26.0	83	21.6	0	0	---	0.00	30.359 
06:55	25.8	25.8	25.8	83	21.4	0	0	---	0.00	30.359 
07:00	25.8	25.8	25.8	83	21.4	0	0	---	0.00	30.355 
07:05	26.0	26.0	26.0	83	21.6	0	1	248	0.00	30.352 
07:10	26.0	26.0	26.0	83	21.6	0	1	248	0.00	30.349 
07:15	26.1	26.1	26.1	83	21.7	0	1	248	0.00	30.352 
07:20	26.1	26.1	26.1	83	21.7	0	1	248	0.00	30.352 
07:25	26.1	26.1	26.1	83	21.7	0	0	---	0.00	30.353 
07:30	26.0	26.0	26.0	83	21.6	0	0	---	0.00	30.354 
07:35	26.0	26.0	26.0	83	21.6	0	0	---	0.00	30.357 
07:40	25.8	25.8	25.8	84	21.6	0	0	---	0.00	30.359 
07:45	25.8	25.8	25.8	84	21.6	0	0	---	0.00	30.357 
07:50	25.7	25.7	25.7	84	21.5	0	0	---	0.00	30.356 
07:55	25.6	25.6	25.6	84	21.5	0	0	---	0.00	30.355 
08:00	25.4	25.4	25.4	84	21.3	0	0	---	0.00	30.355 
08:05	25.4	25.4	25.4	85	21.5	0	0	---	0.00	30.356 
08:10	25.4	25.4	25.4	85	21.5	0	0	---	0.00	30.355 
08:15	25.4	25.4	25.4	85	21.5	0	0	---	0.00	30.356 
08:20	25.4	25.4	25.4	85	21.5	0	0	---	0.00	30.355 
08:25	25.4	25.4	25.4	86	21.8	0	0	---	0.00	30.355 
08:30	25.6	25.6	25.6	86	22.0	0	0	---	0.00	30.353 
08:35	25.8	25.8	25.8	86	22.2	0	0	---	0.00	30.353 
08:40	26.0	26.0	26.0	87	22.7	0	1	248	0.00	30.353 
08:45	26.3	26.3	26.3	87	23.0	0	0	---	0.00	30.354 
08:50	26.7	26.7	26.7	87	23.4	0	1	248	0.00	30.353 
08:55	27.2	27.2	27.2	87	23.9	0	1	248	0.00	30.352 
09:00	27.6	27.6	27.6	86	24.0	0	1	248	0.00	30.349 
09:05	28.2	28.2	28.2	85	24.3	0	2	45	0.00	30.347 
09:10	28.7	28.7	28.7	84	24.5	0	2	45	0.00	30.346 
09:15	29.3	29.3	29.3	82	24.5	0	2	45	0.00	30.348 
09:20	29.7	29.7	29.7	80	24.3	0	6	270	0.00	30.348 
09:25	30.1	30.1	30.1	77	23.8	1	3	248	0.00	30.349 
09:30	30.6	30.6	30.6	76	24.0	1	3	248	0.00	30.347 
09:35	30.9	30.9	30.9	75	23.9	1	2	248	0.00	30.346 
09:40	31.2	31.2	31.2	75	24.2	0	2	248	0.00	30.343 
09:45	31.3	31.3	31.3	72	23.3	2	5	248	0.00	30.345 
09:50	31.5	31.5	31.5	72	23.5	1	6	248	0.00	30.345 
09:55	31.8	31.8	31.8	72	23.8	1	4	248	0.00	30.340 
10:00	32.1	32.1	32.1	71	23.8	2	4	248	0.00	30.340 
10:05	32.2	32.2	32.2	70	23.5	2	6	248	0.00	30.342 
10:10	32.4	32.4	32.4	69	23.4	2	7	248	0.00	30.342 
10:15	32.5	32.5	32.5	69	23.5	2	7	248	0.00	30.340 
10:20	32.7	32.7	32.7	69	23.7	2	7	248	0.00	30.341 
10:25	32.9	32.9	32.9	69	23.9	2	5	248	0.00	30.339 
10:30	33.1	33.1	33.1	68	23.7	3	6	248	0.00	30.334 
10:35	33.4	33.4	33.4	69	24.3	1	4	248	0.00	30.335 
10:40	33.8	33.8	33.8	68	24.4	2	5	248	0.00	30.335 
10:45	34.6	34.6	34.6	67	24.8	2	6	270	0.00	30.333 
10:50	34.9	34.9	34.9	65	24.3	3	7	248	0.00	30.332 
10:55	34.7	31.2	34.7	63	23.4	4	11	248	0.00	30.331 
11:00	34.6	31.1	34.6	64	23.7	4	11	248	0.00	30.329 
11:05	34.7	34.7	34.7	64	23.8	3	9	248	0.00	30.331 
11:10	34.7	31.2	34.7	63	23.4	4	10	248	0.00	30.325 
11:15	34.9	34.9	34.9	64	24.0	3	9	248	0.00	30.322 
11:20	35.0	31.5	35.0	62	23.3	4	11	248	0.00	30.319 
11:25	34.7	30.2	34.7	63	23.4	5	10	248	0.00	30.317 
11:30	34.7	34.7	34.7	63	23.4	3	7	248	0.00	30.310 
11:35	34.9	31.4	34.9	61	22.8	4	12	248	0.00	30.309 
11:40	35.2	35.2	35.2	61	23.1	3	9	248	0.00	30.301 
11:45	35.5	35.5	35.5	62	23.8	3	9	248	0.00	30.300 
11:50	35.2	31.8	35.2	60	22.7	4	11	248	0.00	30.300 
11:55	35.2	35.2	35.2	61	23.1	3	7	248	0.00	30.291 
12:00	35.2	35.2	35.2	62	23.5	3	9	270	0.00	30.295 
12:05	35.2	35.2	35.2	62	23.5	2	7	248	0.00	30.297 
12:10	34.9	31.4	34.9	62	23.2	4	9	270	0.00	30.298 
12:15	34.9	34.9	34.9	63	23.6	3	11	248	0.00	30.295 
12:20	35.0	31.5	35.0	62	23.3	4	9	270	0.00	30.289 
12:25	35.2	31.8	35.2	63	23.9	4	10	270	0.00	30.287 
12:30	35.5	32.1	35.5	62	23.8	4	10	248	0.00	30.282 
12:35	35.5	35.5	35.5	62	23.8	3	7	248	0.00	30.277 
12:40	35.3	31.9	35.3	62	23.6	4	11	248	0.00	30.277 
12:45	35.5	35.5	35.5	63	24.2	3	9	248	0.00	30.278 
12:50	35.3	35.3	35.3	62	23.6	3	7	248	0.00	30.276 
12:55	35.5	35.5	35.5	62	23.8	2	7	270	0.00	30.271 
13:00	35.5	35.5	35.5	62	23.8	3	7	248	0.00	30.268 
13:05	35.6	35.6	35.6	64	24.6	2	7	248	0.00	30.270 
13:10	35.8	35.8	35.8	63	24.5	3	12	248	0.00	30.269 
13:15	35.6	32.2	35.6	61	23.5	4	10	248	0.00	30.259 
13:20	35.8	35.8	35.8	61	23.7	3	6	248	0.00	30.252 
13:25	36.0	36.0	36.0	62	24.3	3	7	248	0.00	30.253 
13:30	36.5	36.5	36.5	62	24.7	2	5	248	0.00	30.246 
13:35	36.6	36.6	36.6	61	24.4	2	6	248	0.00	30.239 
13:40	36.5	36.5	36.5	61	24.3	3	7	248	0.00	30.238 
13:45	36.3	36.3	36.3	60	23.8	3	7	270	0.00	30.244 
13:50	36.5	36.5	36.5	59	23.6	3	12	248	0.00	30.242 
13:55	36.5	36.5	36.5	58	23.1	3	7	248	0.00	30.243 
14:00	36.5	36.5	36.5	58	23.1	3	9	248	0.00	30.235 
14:05	36.3	36.3	36.3	59	23.4	3	9	248	0.00	30.233 
14:10	36.3	36.3	36.3	60	23.8	2	6	248	0.00	30.235 
14:15	36.2	36.2	36.2	58	22.9	3	5	248	0.00	30.236 
14:20	36.3	36.3	36.3	59	23.4	2	6	248	0.00	30.239 
14:25	36.3	36.3	36.3	58	23.0	3	10	248	0.00	30.239 
14:30	36.3	36.3	36.3	60	23.8	2	9	225	0.00	30.237 
14:35	36.2	36.2	36.2	60	23.7	3	8	248	0.00	30.232 
14:40	36.0	36.0	36.0	60	23.5	3	9	248	0.00	30.232 
14:45	35.9	35.9	35.9	61	23.8	2	5	248	0.00	30.235 
14:50	36.0	36.0	36.0	61	23.9	1	5	248	0.00	30.234 
14:55	36.2	36.2	36.2	61	24.1	2	7	248	0.00	30.231 
15:00	36.2	36.2	36.2	62	24.5	2	7	248	0.00	30.227 
15:05	36.0	36.0	36.0	61	23.9	3	9	248	0.00	30.224 
15:10	36.0	36.0	36.0	62	24.3	3	9	248	0.00	30.222 
15:15	36.0	36.0	36.0	62	24.3	2	6	248	0.00	30.222 
15:20	36.0	36.0	36.0	62	24.3	2	7	248	0.00	30.223 
15:25	36.0	36.0	36.0	62	24.3	1	5	248	0.00	30.224 
15:30	36.0	36.0	36.0	62	24.3	1	5	248	0.00	30.225 
15:35	36.0	36.0	36.0	62	24.3	2	5	248	0.00	30.222 
15:40	35.9	35.9	35.9	64	24.9	1	4	225	0.00	30.222 
15:45	35.9	35.9	35.9	64	24.9	2	5	225	0.00	30.222 
15:50	35.9	35.9	35.9	64	24.9	1	5	248	0.00	30.220 
15:55	35.8	35.8	35.8	63	24.5	2	6	248	0.00	30.222 
16:00	35.8	35.8	35.8	62	24.1	2	7	248	0.00	30.223 
16:05	35.6	35.6	35.6	62	23.9	2	5	248	0.00	30.223 
16:10	35.6	35.6	35.6	62	23.9	1	4	248	0.00	30.223 
16:15	35.6	35.6	35.6	62	23.9	2	6	248	0.00	30.223 
16:20	35.5	35.5	35.5	62	23.8	2	6	248	0.00	30.225 
16:25	35.5	35.5	35.5	61	23.4	3	7	248	0.00	30.236 
16:30	35.3	35.3	35.3	62	23.6	2	6	225	0.00	30.238 
16:35	35.3	35.3	35.3	62	23.6	1	4	248	0.00	30.236 
16:40	35.3	35.3	35.3	62	23.6	1	7	225	0.00	30.241 
16:45	35.3	35.3	35.3	62	23.6	3	10	248	0.00	30.238 
16:50	35.2	35.2	35.2	62	23.5	2	10	248	0.00	30.236 
16:55	35.2	35.2	35.2	62	23.5	2	7	248	0.00	30.236 
17:00	35.0	35.0	35.0	62	23.3	2	6	248	0.00	30.237 
17:05	35.0	35.0	35.0	62	23.3	1	6	248	0.00	30.235 
17:10	34.9	34.9	34.9	62	23.2	1	4	248	0.00	30.233 
17:15	34.9	34.9	34.9	63	23.6	1	3	248	0.00	30.230 
17:20	34.7	34.7	34.7	63	23.4	1	5	225	0.00	30.233 
17:25	34.6	34.6	34.6	64	23.7	0	2	225	0.00	30.236 
17:30	34.3	34.3	34.3	65	23.8	1	4	225	0.00	30.227 
17:35	34.1	34.1	34.1	65	23.6	0	3	225	0.00	30.226 
17:40	33.8	33.8	33.8	66	23.7	0	3	248	0.00	30.222 
17:45	33.7	33.7	33.7	66	23.6	1	4	248	0.00	30.227 
17:50	33.5	33.5	33.5	67	23.7	0	1	248	0.00	30.232 
17:55	33.5	33.5	33.5	67	23.7	1	4	225	0.00	30.237 
18:00	33.2	33.2	33.2	68	23.8	0	2	225	0.00	30.239 
18:05	33.2	33.2	33.2	68	23.8	0	2	225	0.00	30.243 
18:10	33.1	33.1	33.1	69	24.1	0	1	225	0.00	30.248 
18:15	32.9	32.9	32.9	69	23.9	0	1	225	0.00	30.247 
18:20	32.7	32.7	32.7	70	24.0	0	1	225	0.00	30.248 
18:25	32.5	32.5	32.5	70	23.8	0	1	225	0.00	30.248 
18:30	32.2	32.2	32.2	71	23.9	0	1	225	0.00	30.251 
18:35	31.9	31.9	31.9	71	23.6	0	1	225	0.00	30.254 
18:40	31.8	31.8	31.8	72	23.8	0	0	---	0.00	30.253 
18:45	31.5	31.5	31.5	73	23.9	0	0	---	0.00	30.254 
18:50	31.2	31.2	31.2	74	23.9	0	1	225	0.00	30.257 
18:55	31.0	31.0	31.0	74	23.7	0	0	---	0.00	30.256 
19:00	31.0	31.0	31.0	74	23.7	0	1	225	0.00	30.256 
19:05	30.7	30.7	30.7	75	23.7	0	0	---	0.00	30.256 
19:10	30.6	30.6	30.6	75	23.6	0	0	---	0.00	30.258 
19:15	30.4	30.4	30.4	76	23.8	0	0	---	0.00	30.257 
19:20	30.3	30.3	30.3	77	24.0	0	1	225	0.00	30.255 
19:25	30.4	30.4	30.4	77	24.1	0	2	225	0.00	30.251 
19:30	30.7	30.7	30.7	76	24.0	0	3	248	0.00	30.248 
19:35	30.7	30.7	30.7	76	24.0	0	1	248	0.00	30.242 
19:40	30.7	30.7	30.7	75	23.7	0	1	248	0.00	30.242 
19:45	30.7	30.7	30.7	75	23.7	0	1	248	0.00	30.242 
19:50	30.9	30.9	30.9	75	23.9	0	3	270	0.00	30.243 
19:55	30.9	30.9	30.9	75	23.9	0	2	248	0.00	30.243 
20:00	30.9	30.9	30.9	75	23.9	0	3	225	0.00	30.242 
20:05	30.9	30.9	30.9	75	23.9	0	1	248	0.00	30.240 
20:10	30.7	30.7	30.7	75	23.7	0	2	248	0.00	30.242 
20:15	30.7	30.7	30.7	75	23.7	0	3	248	0.00	30.248 
20:20	30.7	30.7	30.7	75	23.7	0	1	248	0.00	30.245 
20:25	30.4	30.4	30.4	76	23.8	0	2	248	0.00	30.241 
20:30	30.4	30.4	30.4	76	23.8	0	2	248	0.00	30.245 
20:35	30.3	30.3	30.3	76	23.7	0	1	248	0.00	30.241 
20:40	30.3	30.3	30.3	76	23.7	0	1	248	0.00	30.241 
20:45	30.3	30.3	30.3	76	23.7	0	1	248	0.00	30.239 
20:50	30.3	30.3	30.3	76	23.7	0	2	248	0.00	30.241 
20:55	30.3	30.3	30.3	76	23.7	0	1	248	0.00	30.241 
21:00	30.4	30.4	30.4	76	23.8	0	3	248	0.00	30.242 
21:05	30.6	30.6	30.6	76	24.0	1	5	248	0.00	30.239 
21:10	30.9	30.9	30.9	75	23.9	2	6	248	0.00	30.241 
21:15	31.0	31.0	31.0	75	24.0	1	4	248	0.00	30.239 
21:20	30.9	30.9	30.9	75	23.9	1	5	248	0.00	30.247 
21:25	30.9	30.9	30.9	75	23.9	1	3	248	0.00	30.245 
21:30	30.7	30.7	30.7	75	23.7	1	3	225	0.00	30.249 
21:35	30.6	30.6	30.6	75	23.6	1	3	248	0.00	30.243 
21:40	30.6	30.6	30.6	75	23.6	1	3	225	0.00	30.243 
21:45	30.4	30.4	30.4	75	23.4	1	3	248	0.00	30.236 
21:50	30.4	30.4	30.4	76	23.8	0	2	248	0.00	30.238 
21:55	30.3	30.3	30.3	76	23.7	1	4	248	0.00	30.237 
22:00	30.3	30.3	30.3	75	23.3	1	4	248	0.00	30.237 
22:05	30.3	30.3	30.3	75	23.3	0	2	248	0.00	30.236 
22:10	30.1	30.1	30.1	76	23.5	1	3	248	0.00	30.234 
22:15	30.0	30.0	30.0	76	23.4	1	3	248	0.00	30.235 
22:20	29.8	29.8	29.8	76	23.2	0	2	248	0.00	30.233 
22:25	29.8	29.8	29.8	76	23.2	1	3	248	0.00	30.231 
22:30	29.7	29.7	29.7	76	23.1	0	2	248	0.00	30.223 
22:35	29.7	29.7	29.7	76	23.1	1	3	248	0.00	30.227 
22:40	29.7	29.7	29.7	76	23.1	1	4	248	0.00	30.231 
22:45	29.5	29.5	29.5	76	22.9	0	1	248	0.00	30.227 
22:50	29.5	29.5	29.5	76	22.9	0	2	248	0.00	30.232 
22:55	29.4	29.4	29.4	77	23.1	0	2	248	0.00	30.233 
23:00	29.3	29.3	29.3	77	23.0	0	2	248	0.00	30.232 
23:05	29.1	29.1	29.1	77	22.8	0	1	248	0.00	30.231 
23:10	29.1	29.1	29.1	77	22.8	0	4	248	0.00	30.232 
23:15	29.1	29.1	29.1	77	22.8	1	3	248	0.00	30.234 
23:20	29.3	29.3	29.3	77	23.0	1	3	248	0.00	30.233 
23:25	29.3	29.3	29.3	77	23.0	0	2	248	0.00	30.230 
23:30	29.3	29.3	29.3	77	23.0	1	2	248	0.00	30.232 
23:35	29.1	29.1	29.1	77	22.8	0	1	248	0.00	30.230 
23:40	29.1	29.1	29.1	77	22.8	0	2	248	0.00	30.234 
23:45	29.0	29.0	29.0	77	22.7	0	2	248	0.00	30.233 
23:50	29.0	29.0	29.0	77	22.7	1	3	248	0.00	30.233 
23:55	29.0	29.0	29.0	77	22.7	0	2	248	0.00	30.232 

CoCoRaHS
IN-AL-39
A2 Web Hosting
Creative Commons License
GoDaddy
Look for:

loaded 2017-10-17 09:26:48 • last modified 2010-11-18 10:43:29
Privacy PolicyDisclaimer
• wx.awcolley.com is powered by PmWiki v.2002016 •
• all content (unless otherwise noted) © 2017 A W Colley